Time;durP1;ratioP1;P1;durP2;ratioP2;P2;SDS_P1;SDS_P2;PMS_P1;PMS_P2;Temp;Humidity;BMP_temperature;BMP_pressure;BME280_temperature;BME280_humidity;BME280_pressure;Samples;Min_cycle;Max_cycle;Signal;HPM_P1;HPM_P2
2022/05/19 00:00:32;;;;;;;3.27;2.40;;;21.10;75.60;;;;;;10346128;28;20210;-70
2022/05/19 00:05:33;;;;;;;3.10;2.80;;;21.00;76.10;;;;;;10355304;28;20242;-71
2022/05/19 00:10:34;;;;;;;4.37;2.70;;;21.00;76.30;;;;;;10353118;28;20263;-70
2022/05/19 00:15:34;;;;;;;3.70;2.80;;;20.80;77.80;;;;;;10355820;28;20236;-69
2022/05/19 00:20:35;;;;;;;4.43;2.67;;;20.70;78.40;;;;;;10358931;28;20221;-69
2022/05/19 00:25:36;;;;;;;3.47;2.77;;;20.60;79.60;;;;;;10355839;28;20236;-70
2022/05/19 00:30:37;;;;;;;3.43;2.77;;;20.50;80.50;;;;;;10353955;28;20368;-70
2022/05/19 00:35:39;;;;;;;5.33;2.97;;;20.40;81.60;;;;;;10359082;28;20300;-71
2022/05/19 00:40:46;;;;;;;3.50;3.20;;;20.30;82.80;;;;;;10345472;28;20221;-70
2022/05/19 00:45:54;;;;;;;3.17;2.83;;;20.20;84.00;;;;;;10345275;28;20302;-69
2022/05/19 00:51:01;;;;;;;4.17;3.03;;;20.20;85.20;;;;;;10339232;28;20222;-69
2022/05/19 00:56:09;;;;;;;3.77;3.13;;;20.10;85.40;;;;;;10358954;28;20217;-69
2022/05/19 01:01:09;;;;;;;4.23;3.33;;;20.10;86.90;;;;;;10364764;28;20607;-69
2022/05/19 01:06:17;;;;;;;3.57;3.27;;;20.00;87.90;;;;;;10354193;28;20329;-68
2022/05/19 01:11:18;;;;;;;6.23;4.00;;;19.90;89.80;;;;;;10359895;28;20704;-69
2022/05/19 01:16:19;;;;;;;4.83;3.53;;;19.80;90.60;;;;;;10335480;28;20221;-69
2022/05/19 01:21:22;;;;;;;4.37;3.40;;;19.70;91.40;;;;;;10338210;28;20222;-70
2022/05/19 01:26:28;;;;;;;6.10;3.20;;;19.70;92.10;;;;;;10349763;28;20249;-69
2022/05/19 01:31:33;;;;;;;5.07;3.60;;;19.50;93.20;;;;;;10363307;28;20228;-69
2022/05/19 01:36:34;;;;;;;4.00;3.40;;;19.50;94.30;;;;;;10351375;28;20221;-69
2022/05/19 01:41:35;;;;;;;6.87;3.73;;;19.50;95.00;;;;;;10352597;28;20708;-69
2022/05/19 01:46:37;;;;;;;4.17;3.43;;;19.40;95.60;;;;;;10352503;28;20317;-69
2022/05/19 01:51:49;;;;;;;8.83;4.00;;;19.30;95.90;;;;;;10359263;28;20240;-69
2022/05/19 01:56:59;;;;;;;6.03;3.77;;;19.30;97.30;;;;;;10351270;28;20589;-69
2022/05/19 02:02:12;;;;;;;4.20;3.47;;;19.30;98.30;;;;;;10355214;28;20240;-69
2022/05/19 02:07:15;;;;;;;5.13;3.77;;;19.20;98.80;;;;;;10334826;28;20283;-71
2022/05/19 02:12:17;;;;;;;7.00;3.77;;;19.20;99.90;;;;;;10352313;28;20232;-69
2022/05/19 02:17:21;;;;;;;5.43;3.80;;;19.20;99.90;;;;;;10348272;28;20312;-69
2022/05/19 02:22:29;;;;;;;4.07;3.10;;;19.10;99.90;;;;;;10353947;28;21018;-69
2022/05/19 02:27:50;;;;;;;2.93;2.63;;;19.00;99.10;;;;;;10368146;28;20316;-69
2022/05/19 02:32:51;;;;;;;3.60;2.87;;;19.00;97.40;;;;;;10365235;28;20237;-69
2022/05/19 02:37:53;;;;;;;6.53;2.53;;;19.10;95.90;;;;;;10353639;28;20236;-69
2022/05/19 02:42:53;;;;;;;4.80;2.90;;;19.20;95.90;;;;;;10353093;28;20225;-70
2022/05/19 02:47:57;;;;;;;6.47;2.60;;;19.20;96.20;;;;;;10363722;28;20255;-68
2022/05/19 02:52:59;;;;;;;3.80;2.53;;;19.10;96.00;;;;;;10367553;28;20738;-69
2022/05/19 02:58:00;;;;;;;4.27;2.50;;;19.10;96.10;;;;;;10359830;28;20253;-68
2022/05/19 03:03:00;;;;;;;3.67;2.73;;;19.10;96.00;;;;;;10360980;28;20253;-69
2022/05/19 03:08:01;;;;;;;4.13;2.73;;;19.10;95.90;;;;;;10358075;28;20312;-68
2022/05/19 03:13:05;;;;;;;3.97;2.90;;;19.10;95.80;;;;;;10361453;28;20347;-69
2022/05/19 03:18:06;;;;;;;3.30;2.80;;;19.10;95.70;;;;;;10355518;28;20705;-69
2022/05/19 03:23:07;;;;;;;4.20;2.67;;;19.00;95.60;;;;;;10361529;28;20221;-70
2022/05/19 03:28:11;;;;;;;3.50;2.90;;;19.00;95.30;;;;;;10369368;28;20216;-69
2022/05/19 03:33:13;;;;;;;3.93;2.50;;;19.00;94.30;;;;;;10364960;28;20224;-69
2022/05/19 03:38:13;;;;;;;4.83;2.70;;;19.20;93.80;;;;;;10350514;28;20224;-69
2022/05/19 03:43:14;;;;;;;4.47;2.40;;;19.20;93.50;;;;;;10362560;28;20228;-71
2022/05/19 03:48:15;;;;;;;3.27;2.47;;;19.10;93.30;;;;;;10353909;28;20224;-69
2022/05/19 03:53:15;;;;;;;4.03;2.40;;;19.00;93.30;;;;;;10362332;28;20666;-68
2022/05/19 03:58:16;;;;;;;6.33;2.60;;;19.00;93.60;;;;;;10338748;28;20239;-68
2022/05/19 04:03:17;;;;;;;5.03;2.80;;;19.00;93.70;;;;;;10358932;28;20229;-69
2022/05/19 04:08:17;;;;;;;6.23;2.90;;;18.90;93.90;;;;;;10362161;28;20217;-68
2022/05/19 04:13:18;;;;;;;4.97;2.87;;;18.90;94.40;;;;;;10355811;28;20232;-68
2022/05/19 04:18:19;;;;;;;3.73;2.50;;;19.00;94.30;;;;;;10338295;28;20649;-69
2022/05/19 04:23:20;;;;;;;2.97;2.57;;;19.10;94.10;;;;;;10367923;28;20232;-68
2022/05/19 04:28:20;;;;;;;3.63;2.50;;;19.20;93.70;;;;;;10345718;28;20651;-69
2022/05/19 04:33:21;;;;;;;4.40;2.90;;;19.30;93.60;;;;;;10332052;28;20291;-69
2022/05/19 04:38:22;;;;;;;5.83;2.87;;;19.50;93.10;;;;;;10354594;28;20812;-69
2022/05/19 04:43:23;;;;;;;4.57;2.43;;;19.60;92.80;;;;;;10354923;28;20224;-69
2022/05/19 04:48:27;;;;;;;6.83;3.00;;;19.80;92.10;;;;;;10343213;28;20583;-69
2022/05/19 04:53:27;;;;;;;6.13;2.77;;;20.10;91.40;;;;;;10353397;28;20232;-68
2022/05/19 04:58:31;;;;;;;4.67;2.60;;;20.40;90.50;;;;;;10342275;28;20228;-68
2022/05/19 05:03:32;;;;;;;6.10;3.03;;;20.80;88.80;;;;;;10343312;28;20936;-69
2022/05/19 05:08:32;;;;;;;9.73;3.80;;;21.20;86.50;;;;;;10354252;28;20221;-69
2022/05/19 05:13:33;;;;;;;6.53;3.17;;;21.70;82.70;;;;;;10350607;28;20686;-69
2022/05/19 05:18:34;;;;;;;7.03;2.63;;;21.90;80.00;;;;;;10333458;28;20218;-69
2022/05/19 05:23:34;;;;;;;5.87;2.40;;;21.60;78.90;;;;;;10352448;28;20674;-68
2022/05/19 05:28:36;;;;;;;4.30;2.27;;;21.70;79.30;;;;;;10363927;28;20308;-68
2022/05/19 05:33:37;;;;;;;5.13;2.33;;;21.80;79.20;;;;;;10351109;28;20217;-69
2022/05/19 05:38:37;;;;;;;4.70;2.23;;;22.30;77.60;;;;;;10349214;28;20635;-70
2022/05/19 05:43:39;;;;;;;11.40;2.40;;;23.20;73.50;;;;;;10353888;28;20232;-70
2022/05/19 05:48:40;;;;;;;4.97;2.43;;;23.90;70.30;;;;;;10348711;28;20263;-69
2022/05/19 05:53:43;;;;;;;4.03;2.40;;;25.20;67.10;;;;;;10352160;28;20223;-69
2022/05/19 05:58:44;;;;;;;5.13;2.60;;;26.90;60.60;;;;;;10358747;28;20320;-68
2022/05/19 06:03:46;;;;;;;4.90;2.17;;;27.70;58.00;;;;;;10359353;28;20323;-68
2022/05/19 06:08:47;;;;;;;5.17;2.30;;;28.20;55.00;;;;;;10338406;28;20293;-68
2022/05/19 06:13:50;;;;;;;4.93;2.50;;;28.60;53.20;;;;;;10370699;28;20312;-69
2022/05/19 06:18:50;;;;;;;6.77;2.67;;;29.20;50.40;;;;;;10364206;28;20278;-69
2022/05/19 06:23:52;;;;;;;3.83;2.40;;;30.90;48.30;;;;;;10373135;28;20308;-69
2022/05/19 06:28:52;;;;;;;4.73;2.20;;;31.50;46.10;;;;;;10370477;28;20314;-69
2022/05/19 06:33:53;;;;;;;3.27;2.00;;;30.70;47.50;;;;;;10340361;28;20251;-69
2022/05/19 06:38:54;;;;;;;5.50;2.30;;;32.20;45.30;;;;;;10355279;28;20229;-70
2022/05/19 06:43:54;;;;;;;7.43;2.40;;;33.50;42.10;;;;;;10371136;28;20221;-69
2022/05/19 06:48:55;;;;;;;4.77;2.57;;;34.00;39.80;;;;;;10355409;28;20229;-69
2022/05/19 06:53:55;;;;;;;4.87;2.50;;;33.60;40.00;;;;;;10364270;28;20344;-67
2022/05/19 06:58:57;;;;;;;7.23;2.63;;;32.90;40.40;;;;;;10365461;28;20229;-67
2022/05/19 07:03:58;;;;;;;5.57;2.67;;;32.20;42.30;;;;;;10357402;28;20222;-67
2022/05/19 07:08:58;;;;;;;5.70;2.80;;;33.70;40.10;;;;;;10354822;28;20222;-67
2022/05/19 07:14:05;;;;;;;6.77;2.40;;;35.20;39.00;;;;;;10368344;28;20213;-69
2022/05/19 07:24:25;;;;;;;4.50;1.93;;;38.90;32.40;;;;;;10359150;28;20237;-68
2022/05/19 07:29:26;;;;;;;4.10;2.07;;;39.20;31.80;;;;;;10363437;28;20229;-68
2022/05/19 07:34:29;;;;;;;3.70;2.03;;;38.80;31.30;;;;;;10361354;28;20217;-71
2022/05/19 07:39:30;;;;;;;2.67;1.90;;;40.40;30.10;;;;;;10363308;28;20306;-70
2022/05/19 07:44:31;;;;;;;5.73;1.97;;;40.50;29.00;;;;;;10356144;28;20225;-70
2022/05/19 07:49:31;;;;;;;3.23;2.20;;;39.10;29.70;;;;;;10337032;28;20302;-70
2022/05/19 07:54:33;;;;;;;3.13;2.27;;;39.00;31.10;;;;;;10345815;28;20244;-68
2022/05/19 07:59:34;;;;;;;5.93;2.00;;;40.10;29.40;;;;;;10361520;28;20221;-68
2022/05/19 08:04:35;;;;;;;3.00;2.20;;;40.70;29.00;;;;;;10349860;28;20233;-70
2022/05/19 08:20:14;;;;;;;4.00;2.00;;;41.10;27.80;;;;;;10354947;28;20221;-68
2022/05/19 08:25:15;;;;;;;2.33;1.80;;;41.40;28.20;;;;;;10354517;28;20221;-69
2022/05/19 08:30:16;;;;;;;3.47;1.90;;;42.20;27.40;;;;;;10351367;28;20188;-70
2022/05/19 08:35:18;;;;;;;4.03;1.93;;;41.60;27.20;;;;;;10359816;28;20197;-71
2022/05/19 08:40:20;;;;;;;4.07;1.90;;;40.20;28.50;;;;;;10346584;28;20284;-70
2022/05/19 08:45:38;;;;;;;4.40;2.07;;;39.50;29.60;;;;;;10552510;27;20580;-69
2022/05/19 08:50:56;;;;;;;3.13;1.80;;;39.30;29.80;;;;;;10509635;28;20231;-69
2022/05/19 08:56:31;;;;;;;5.63;2.00;;;40.00;29.60;;;;;;10513669;28;20218;-71
2022/05/19 09:01:53;;;;;;;2.23;1.90;;;41.40;28.70;;;;;;10488499;28;20215;-69
2022/05/19 09:12:45;;;;;;;3.03;2.00;;;43.70;26.90;;;;;;10503481;28;20215;-70
2022/05/19 09:17:47;;;;;;;9.75;2.40;;;44.00;26.50;;;;;;10486269;28;20595;-71
2022/05/19 09:22:47;;;;;;;6.25;2.13;;;44.20;26.70;;;;;;10504756;28;20231;-69
2022/05/19 09:27:51;;;;;;;2.58;2.00;;;44.10;26.60;;;;;;10497450;28;20222;-69
2022/05/19 09:32:53;;;;;;;13.43;2.63;;;43.50;26.60;;;;;;10493352;28;20219;-69
2022/05/19 09:38:13;;;;;;;5.80;2.30;;;43.10;27.50;;;;;;10504813;28;20818;-69
2022/05/19 09:43:19;;;;;;;4.30;2.43;;;43.40;27.00;;;;;;10497847;28;20634;-70
2022/05/19 09:48:27;;;;;;;7.47;2.50;;;43.10;27.00;;;;;;10500641;28;20219;-69
2022/05/19 09:53:36;;;;;;;18.40;2.57;;;41.60;27.90;;;;;;10488043;28;20783;-70
2022/05/19 09:58:41;;;;;;;13.00;2.80;;;41.60;28.50;;;;;;10470535;28;20245;-69
2022/05/19 10:03:48;;;;;;;26.70;3.85;;;42.40;28.40;;;;;;10476929;28;20236;-70
2022/05/19 10:09:14;;;;;;;5.78;2.00;;;45.30;26.10;;;;;;10475965;28;20224;-69
2022/05/19 10:14:27;;;;;;;7.00;2.30;;;46.70;24.60;;;;;;10470666;28;20220;-70
2022/05/19 10:19:53;;;;;;;3.92;2.40;;;47.20;24.40;;;;;;10462171;28;20220;-70
2022/05/19 10:25:24;;;;;;;7.70;2.50;;;47.00;24.20;;;;;;10474224;28;20614;-70
2022/05/19 10:37:05;;;;;;;3.22;2.30;;;46.00;25.30;;;;;;10467257;28;20626;-69
2022/05/19 10:42:21;;;;;;;4.20;2.30;;;46.20;25.00;;;;;;10444161;28;20259;-69
2022/05/19 10:47:39;;;;;;;8.73;2.33;;;45.00;25.20;;;;;;10478893;28;20214;-68
2022/05/19 10:53:01;;;;;;;3.83;2.20;;;45.10;25.90;;;;;;10467424;28;20212;-68
2022/05/19 10:58:39;;;;;;;4.43;2.50;;;44.70;25.60;;;;;;10469569;28;20808;-69
2022/05/19 11:03:45;;;;;;;4.53;2.50;;;44.20;26.10;;;;;;10456481;28;20224;-69
2022/05/19 11:09:02;;;;;;;10.93;2.20;;;43.90;26.30;;;;;;10463551;28;20222;-68
2022/05/19 11:14:24;;;;;;;5.93;2.40;;;44.00;26.80;;;;;;10463134;28;20297;-68
2022/05/19 11:19:39;;;;;;;11.57;2.77;;;44.00;26.70;;;;;;10447158;28;20236;-68
2022/05/19 11:30:14;;;;;;;9.83;2.80;;;43.70;27.10;;;;;;10456710;28;20711;-68
2022/05/19 11:35:20;;;;;;;4.30;2.13;;;42.00;28.50;;;;;;10467060;28;20184;-69
2022/05/19 11:40:35;;;;;;;4.83;2.40;;;40.50;30.00;;;;;;10473272;28;20213;-68
2022/05/19 11:46:30;;;;;;;3.93;2.33;;;38.70;32.60;;;;;;10460166;28;20215;-71
2022/05/19 11:56:54;;;;;;;7.27;2.90;;;37.40;34.30;;;;;;10466453;28;20595;-69
2022/05/19 12:01:55;;;;;;;4.33;3.00;;;37.10;34.80;;;;;;10456962;28;20388;-69
2022/05/19 12:07:13;;;;;;;7.03;3.10;;;36.60;36.10;;;;;;10463796;28;20265;-69
2022/05/19 12:12:22;;;;;;;4.97;2.73;;;36.20;36.90;;;;;;10472163;28;20824;-68
2022/05/19 12:17:29;;;;;;;7.23;3.13;;;35.70;37.80;;;;;;10457212;28;20698;-69
2022/05/19 12:22:45;;;;;;;5.47;2.70;;;35.60;38.40;;;;;;10447756;28;20346;-68
2022/05/19 12:28:05;;;;;;;6.20;2.90;;;35.40;38.60;;;;;;10462759;28;20319;-69
2022/05/19 12:33:30;;;;;;;7.53;3.03;;;35.50;38.80;;;;;;10457178;28;20228;-69
2022/05/19 12:38:35;;;;;;;9.03;3.63;;;35.60;39.60;;;;;;10459163;28;20220;-69
2022/05/19 12:43:43;;;;;;;7.37;3.40;;;35.50;39.80;;;;;;10463991;28;20224;-67
2022/05/19 12:48:48;;;;;;;7.87;3.47;;;35.40;40.00;;;;;;10477506;28;20227;-68
2022/05/19 12:53:52;;;;;;;8.00;3.60;;;35.10;40.70;;;;;;10459323;28;20245;-68
2022/05/19 12:59:29;;;;;;;7.67;3.67;;;34.60;41.50;;;;;;10473992;28;20813;-68
2022/05/19 13:04:29;;;;;;;6.43;3.40;;;34.60;41.80;;;;;;10458855;28;20344;-68
2022/05/19 13:09:33;;;;;;;5.57;3.17;;;35.10;41.90;;;;;;10467324;28;20282;-68
2022/05/19 13:14:41;;;;;;;8.40;3.50;;;35.40;41.20;;;;;;10471991;28;20219;-69
2022/05/19 13:19:43;;;;;;;6.37;3.80;;;35.20;41.10;;;;;;10453931;28;20242;-69
2022/05/19 13:24:46;;;;;;;7.97;3.53;;;34.80;41.60;;;;;;10468222;28;20228;-69
2022/05/19 13:35:18;;;;;;;8.70;4.07;;;33.80;43.60;;;;;;10479087;28;20227;-68
2022/05/19 13:40:28;;;;;;;5.67;3.80;;;33.50;44.10;;;;;;10477618;28;20274;-69
2022/05/19 13:45:44;;;;;;;4.63;3.63;;;33.30;45.10;;;;;;10470225;28;20235;-68
2022/05/19 13:50:44;;;;;;;9.73;3.60;;;33.30;44.70;;;;;;10473886;28;20230;-68
2022/05/19 13:55:55;;;;;;;6.80;3.40;;;33.30;45.20;;;;;;10475507;28;20257;-70
2022/05/19 14:00:56;;;;;;;6.97;3.30;;;33.20;45.60;;;;;;10472497;28;20261;-70
2022/05/19 14:05:57;;;;;;;5.33;3.43;;;33.10;45.60;;;;;;10492116;28;20223;-70
2022/05/19 14:10:59;;;;;;;6.33;3.47;;;32.70;46.90;;;;;;10470334;28;20248;-69
2022/05/19 14:16:04;;;;;;;8.00;3.93;;;32.60;47.30;;;;;;10473498;28;20772;-70
2022/05/19 14:21:20;;;;;;;13.23;4.47;;;32.80;47.20;;;;;;10472428;28;20242;-69
2022/05/19 14:26:45;;;;;;;7.53;3.53;;;32.90;46.90;;;;;;10474719;28;20246;-70
2022/05/19 14:31:48;;;;;;;8.53;3.80;;;32.80;46.90;;;;;;10465763;28;20263;-69
2022/05/19 14:37:00;;;;;;;7.23;3.50;;;32.70;47.60;;;;;;10470061;28;20212;-69
2022/05/19 14:47:33;;;;;;;6.53;4.03;;;32.50;48.00;;;;;;10474180;28;20257;-69
2022/05/19 14:52:40;;;;;;;7.17;3.63;;;32.60;48.20;;;;;;10467480;28;20223;-70
2022/05/19 14:57:41;;;;;;;8.90;3.90;;;32.80;47.10;;;;;;10474646;28;20219;-69
2022/05/19 15:02:42;;;;;;;6.97;3.70;;;32.80;46.10;;;;;;10468356;28;20223;-70
2022/05/19 15:07:47;;;;;;;8.70;3.50;;;32.80;46.40;;;;;;10467563;28;20216;-69
2022/05/19 15:12:50;;;;;;;32.90;4.43;;;33.00;46.60;;;;;;10471439;28;20212;-68
2022/05/19 15:17:51;;;;;;;11.63;3.60;;;33.00;46.10;;;;;;10465852;28;20218;-68
2022/05/19 15:22:54;;;;;;;8.23;3.77;;;32.90;46.20;;;;;;10464188;28;20220;-69
2022/05/19 15:27:56;;;;;;;7.80;3.23;;;32.50;46.30;;;;;;10465902;28;20765;-68
2022/05/19 15:32:57;;;;;;;9.23;3.17;;;32.10;47.40;;;;;;10467499;28;20740;-67
2022/05/19 15:37:57;;;;;;;15.07;3.27;;;31.70;48.00;;;;;;10465973;28;20220;-68
2022/05/19 15:42:58;;;;;;;7.40;3.33;;;31.30;49.10;;;;;;10467219;28;20220;-68
2022/05/19 15:48:00;;;;;;;5.03;3.40;;;31.00;50.30;;;;;;10470787;28;20264;-67
2022/05/19 15:53:02;;;;;;;9.77;3.47;;;30.70;51.10;;;;;;10474026;28;20216;-68
2022/05/19 15:58:03;;;;;;;7.50;3.60;;;30.60;51.80;;;;;;10465819;28;20654;-69
2022/05/19 16:03:05;;;;;;;11.97;3.70;;;30.60;52.00;;;;;;10462747;28;20314;-68
2022/05/19 16:08:06;;;;;;;17.47;3.97;;;30.60;52.30;;;;;;10469939;28;20223;-67
2022/05/19 16:13:07;;;;;;;9.33;3.93;;;30.60;52.70;;;;;;10469914;28;20211;-67
2022/05/19 16:18:08;;;;;;;9.20;3.70;;;30.40;53.10;;;;;;10461572;28;20322;-68
2022/05/19 16:23:10;;;;;;;8.83;3.57;;;30.30;53.60;;;;;;10467203;28;20230;-68
2022/05/19 16:28:11;;;;;;;8.50;3.80;;;30.10;54.40;;;;;;10460135;28;20224;-68
2022/05/19 16:33:11;;;;;;;7.60;3.50;;;29.80;55.50;;;;;;10470717;28;20365;-69
2022/05/19 16:38:16;;;;;;;6.73;3.47;;;29.60;56.60;;;;;;10465335;28;20834;-69
2022/05/19 16:43:18;;;;;;;10.00;4.07;;;29.40;57.60;;;;;;10467243;28;20223;-69
2022/05/19 16:48:19;;;;;;;10.27;3.90;;;29.20;58.40;;;;;;10465460;28;20229;-68
2022/05/19 16:53:19;;;;;;;23.63;4.33;;;29.00;59.40;;;;;;10469317;28;20322;-67
2022/05/19 16:58:20;;;;;;;34.87;5.53;;;28.20;58.30;;;;;;10449687;28;20212;-68
2022/05/19 17:03:21;;;;;;;23.90;6.00;;;27.00;78.80;;;;;;10462044;28;20231;-67
2022/05/19 17:08:29;;;;;;;14.27;3.77;;;25.00;84.30;;;;;;10472773;28;20231;-67
2022/05/19 17:13:31;;;;;;;13.93;3.70;;;23.70;95.10;;;;;;10467234;28;20239;-68
2022/05/19 17:18:31;;;;;;;7.60;3.60;;;23.20;99.90;;;;;;10474059;28;20242;-69
2022/05/19 17:23:32;;;;;;;12.10;4.10;;;22.90;99.90;;;;;;10471846;28;20235;-67
2022/05/19 17:28:33;;;;;;;33.73;4.73;;;22.80;99.90;;;;;;10472448;28;20234;-67
2022/05/19 17:33:33;;;;;;;8.07;3.50;;;22.80;99.90;;;;;;10477326;28;20224;-68
2022/05/19 17:38:36;;;;;;;12.83;3.40;;;22.40;99.90;;;;;;10473116;28;20211;-68
2022/05/19 17:43:40;;;;;;;11.33;3.60;;;22.50;99.90;;;;;;10477963;28;20272;-68
2022/05/19 17:48:41;;;;;;;6.77;3.33;;;22.60;99.90;;;;;;10471976;28;20249;-68
2022/05/19 17:53:41;;;;;;;6.63;3.00;;;22.70;99.90;;;;;;10487449;28;20253;-68
2022/05/19 17:58:42;;;;;;;6.60;2.97;;;22.90;99.90;;;;;;10471919;28;20215;-68
2022/05/19 18:03:43;;;;;;;6.27;3.20;;;23.10;99.90;;;;;;10488770;28;20219;-68
2022/05/19 18:08:43;;;;;;;9.80;3.17;;;23.20;99.90;;;;;;10473835;28;20217;-68
2022/05/19 18:13:45;;;;;;;11.77;4.17;;;23.10;99.90;;;;;;10472002;28;20732;-67
2022/05/19 18:18:46;;;;;;;9.00;4.07;;;23.00;99.90;;;;;;10479307;28;20302;-67
2022/05/19 18:23:46;;;;;;;9.03;3.73;;;23.00;99.90;;;;;;10469009;28;20317;-67
2022/05/19 18:28:47;;;;;;;5.27;3.23;;;23.00;99.90;;;;;;10472346;28;20224;-68
2022/05/19 18:33:47;;;;;;;9.80;3.50;;;22.80;99.90;;;;;;10469238;28;20258;-68
2022/05/19 18:38:48;;;;;;;8.33;3.57;;;22.60;99.90;;;;;;10472763;28;20215;-68
2022/05/19 18:49:09;;;;;;;11.97;4.00;;;22.20;99.90;;;;;;10472002;28;20236;-68
2022/05/19 18:54:09;;;;;;;10.67;3.93;;;21.80;99.90;;;;;;10475929;28;20246;-68
2022/05/19 18:59:12;;;;;;;12.47;3.80;;;21.40;99.90;;;;;;10470424;28;20215;-68
2022/05/19 19:04:13;;;;;;;5.97;3.23;;;20.80;99.90;;;;;;10466898;28;20226;-68
2022/05/19 19:09:14;;;;;;;7.77;3.30;;;20.50;99.90;;;;;;10472600;28;20216;-68
2022/05/19 19:14:16;;;;;;;4.90;3.33;;;20.30;99.90;;;;;;10466458;28;20224;-68
2022/05/19 19:19:16;;;;;;;6.97;3.23;;;20.40;99.90;;;;;;10459814;28;20721;-69
2022/05/19 19:24:18;;;;;;;5.67;3.40;;;20.50;99.90;;;;;;10460630;28;20238;-68
2022/05/19 19:29:19;;;;;;;7.97;3.43;;;20.60;99.90;;;;;;10467372;28;20220;-68
2022/05/19 19:34:19;;;;;;;7.37;3.40;;;20.80;99.90;;;;;;10474938;28;20234;-68
2022/05/19 19:39:20;;;;;;;8.07;3.40;;;21.10;99.90;;;;;;10468732;28;20208;-68
2022/05/19 19:44:22;;;;;;;6.23;3.60;;;21.30;99.90;;;;;;10475379;28;20225;-68
2022/05/19 19:49:24;;;;;;;6.47;3.50;;;21.50;99.90;;;;;;10468081;28;20223;-68
2022/05/19 19:54:28;;;;;;;8.37;4.10;;;21.60;99.90;;;;;;10474698;28;20211;-68
2022/05/19 19:59:31;;;;;;;7.53;3.97;;;21.60;99.90;;;;;;10465551;28;21057;-69
2022/05/19 20:04:32;;;;;;;8.53;3.60;;;21.50;99.90;;;;;;10464476;28;20212;-68
2022/05/19 20:09:34;;;;;;;6.70;3.40;;;21.60;99.90;;;;;;10475354;28;20215;-68
2022/05/19 20:14:34;;;;;;;6.23;3.20;;;21.50;99.90;;;;;;10464656;28;20215;-69
2022/05/19 20:19:35;;;;;;;5.03;3.10;;;21.70;99.90;;;;;;10461633;28;20212;-71
2022/05/19 20:24:36;;;;;;;6.77;3.40;;;21.70;99.90;;;;;;10464927;28;20273;-69
2022/05/19 20:29:37;;;;;;;7.33;3.17;;;21.80;99.90;;;;;;10462955;28;20739;-68
2022/05/19 20:34:37;;;;;;;4.73;3.43;;;21.80;99.90;;;;;;10464261;28;20227;-69
2022/05/19 20:39:38;;;;;;;8.77;3.93;;;21.80;99.90;;;;;;10462683;28;20687;-69
2022/05/19 20:44:41;;;;;;;5.67;3.23;;;21.70;99.90;;;;;;10462471;28;20568;-69
2022/05/19 20:49:46;;;;;;;4.63;3.60;;;21.60;99.90;;;;;;10467819;28;20231;-69
2022/05/19 20:54:46;;;;;;;7.37;3.60;;;21.60;99.90;;;;;;10464371;28;20219;-69
2022/05/19 20:59:47;;;;;;;9.43;4.17;;;21.30;99.90;;;;;;10473433;28;20291;-70
2022/05/19 21:04:49;;;;;;;9.50;4.93;;;21.00;99.90;;;;;;10473140;28;20647;-69
2022/05/19 21:09:50;;;;;;;7.90;4.37;;;20.70;99.90;;;;;;10462248;28;20251;-72
2022/05/19 21:14:51;;;;;;;9.03;4.77;;;20.70;99.90;;;;;;10464442;28;20702;-70
2022/05/19 21:19:51;;;;;;;6.23;4.47;;;20.60;99.90;;;;;;10471408;28;20223;-70
2022/05/19 21:30:14;;;;;;;7.73;4.27;;;20.50;99.90;;;;;;10463836;28;20220;-70
2022/05/19 21:35:15;;;;;;;7.60;4.43;;;20.50;99.90;;;;;;10460417;28;20711;-70
2022/05/19 21:40:16;;;;;;;7.90;4.80;;;20.50;99.90;;;;;;10455366;28;20196;-70
2022/05/19 21:45:17;;;;;;;6.47;4.30;;;20.50;99.90;;;;;;10464406;28;20242;-69
2022/05/19 21:50:18;;;;;;;8.23;4.93;;;20.50;99.90;;;;;;10469558;28;20180;-69
2022/05/19 21:55:19;;;;;;;7.97;5.03;;;20.40;99.90;;;;;;10479571;28;20207;-70
2022/05/19 22:00:26;;;;;;;8.20;4.93;;;20.40;99.90;;;;;;10469974;28;20183;-70
2022/05/19 22:05:30;;;;;;;11.23;5.00;;;20.20;99.90;;;;;;10463314;28;20238;-70
2022/05/19 22:10:31;;;;;;;10.53;5.03;;;20.20;99.90;;;;;;10466294;28;20212;-71
2022/05/19 22:15:32;;;;;;;10.00;5.30;;;20.10;99.90;;;;;;10485817;28;20266;-70
2022/05/19 22:20:33;;;;;;;8.03;4.87;;;20.00;99.90;;;;;;10469031;28;20911;-70
2022/05/19 22:25:33;;;;;;;6.23;4.93;;;19.90;99.90;;;;;;10469051;28;20216;-69
2022/05/19 22:30:34;;;;;;;7.87;5.33;;;20.00;99.90;;;;;;10476162;28;20211;-70
2022/05/19 22:35:35;;;;;;;6.63;4.70;;;20.00;99.90;;;;;;10469157;28;20228;-70
2022/05/19 22:40:35;;;;;;;7.33;4.90;;;20.00;99.90;;;;;;10469775;28;20219;-71
2022/05/19 22:45:37;;;;;;;11.17;5.47;;;20.00;99.90;;;;;;10474210;28;20265;-71
2022/05/19 22:50:39;;;;;;;9.33;5.50;;;20.10;99.90;;;;;;10467455;28;20241;-71
2022/05/19 22:55:40;;;;;;;11.23;5.60;;;20.10;99.90;;;;;;10475463;28;20302;-70
2022/05/19 23:00:42;;;;;;;7.23;4.93;;;20.00;99.90;;;;;;10461904;28;20773;-71
2022/05/19 23:05:44;;;;;;;7.37;5.07;;;19.90;99.90;;;;;;10468216;28;20725;-70
2022/05/19 23:10:45;;;;;;;7.33;5.30;;;19.80;99.90;;;;;;10463410;28;20345;-70
2022/05/19 23:15:47;;;;;;;8.87;5.20;;;19.70;99.90;;;;;;10468944;28;20231;-70
2022/05/19 23:20:48;;;;;;;6.27;5.00;;;19.70;99.90;;;;;;10475491;28;20228;-71
2022/05/19 23:25:49;;;;;;;9.43;5.37;;;19.60;99.90;;;;;;10472620;28;20230;-69
2022/05/19 23:30:49;;;;;;;9.57;5.57;;;19.60;99.90;;;;;;10472848;28;20643;-70
2022/05/19 23:35:59;;;;;;;7.87;6.20;;;19.60;99.90;;;;;;10487864;28;20223;-70
2022/05/19 23:41:02;;;;;;;10.00;5.90;;;19.60;99.90;;;;;;10459684;28;20220;-69
2022/05/19 23:46:04;;;;;;;8.53;5.30;;;19.60;99.90;;;;;;10468036;28;20317;-70
2022/05/19 23:51:17;;;;;;;8.57;5.97;;;19.50;99.90;;;;;;10468488;28;20227;-70
2022/05/19 23:56:17;;;;;;;7.70;5.47;;;19.50;99.90;;;;;;10460678;28;20219;-70
